sensor_id;sensor_type;location;lat;lon;timestamp;pressure;altitude;pressure_sealevel;temperature;humidity
20630;BME280;17386;43.846;25.950;2023-01-01T00:00:54;102715.25;;;7.92;100.00
20630;BME280;17386;43.846;25.950;2023-01-01T00:03:20;102711.72;;;7.93;100.00
20630;BME280;17386;43.846;25.950;2023-01-01T00:05:45;102709.94;;;7.92;100.00
20630;BME280;17386;43.846;25.950;2023-01-01T00:08:10;102709.03;;;7.87;100.00
20630;BME280;17386;43.846;25.950;2023-01-01T00:10:36;102698.44;;;7.84;100.00
20630;BME280;17386;43.846;25.950;2023-01-01T00:13:01;102705.50;;;7.87;100.00
20630;BME280;17386;43.846;25.950;2023-01-01T00:15:27;102711.66;;;7.87;100.00
20630;BME280;17386;43.846;25.950;2023-01-01T00:17:53;102709.03;;;7.87;100.00
20630;BME280;17386;43.846;25.950;2023-01-01T00:20:18;102708.19;;;7.90;100.00
20630;BME280;17386;43.846;25.950;2023-01-01T00:22:43;102708.19;;;7.91;100.00
20630;BME280;17386;43.846;25.950;2023-01-01T00:25:10;102702.00;;;7.94;100.00
20630;BME280;17386;43.846;25.950;2023-01-01T00:27:39;102693.16;;;7.87;100.00
20630;BME280;17386;43.846;25.950;2023-01-01T00:30:05;102706.41;;;7.92;100.00
20630;BME280;17386;43.846;25.950;2023-01-01T00:32:30;102706.41;;;7.95;100.00
20630;BME280;17386;43.846;25.950;2023-01-01T00:34:56;102712.56;;;7.88;100.00
20630;BME280;17386;43.846;25.950;2023-01-01T00:37:21;102714.31;;;7.86;100.00
20630;BME280;17386;43.846;25.950;2023-01-01T00:39:47;102723.19;;;7.92;100.00
20630;BME280;17386;43.846;25.950;2023-01-01T00:42:12;102735.53;;;7.95;100.00
20630;BME280;17386;43.846;25.950;2023-01-01T00:44:37;102735.59;;;8.00;100.00
20630;BME280;17386;43.846;25.950;2023-01-01T00:47:03;102740.91;;;8.04;100.00
20630;BME280;17386;43.846;25.950;2023-01-01T00:49:28;102733.88;;;8.08;100.00
20630;BME280;17386;43.846;25.950;2023-01-01T00:51:54;102741.81;;;8.09;100.00
20630;BME280;17386;43.846;25.950;2023-01-01T00:54:19;102740.97;;;8.12;100.00
20630;BME280;17386;43.846;25.950;2023-01-01T00:56:44;102740.97;;;8.10;100.00
20630;BME280;17386;43.846;25.950;2023-01-01T00:59:10;102732.97;;;8.04;100.00
20630;BME280;17386;43.846;25.950;2023-01-01T01:01:35;102737.38;;;8.07;100.00
20630;BME280;17386;43.846;25.950;2023-01-01T01:04:02;102729.44;;;8.08;100.00
20630;BME280;17386;43.846;25.950;2023-01-01T01:06:28;102722.38;;;8.04;100.00
20630;BME280;17386;43.846;25.950;2023-01-01T01:08:54;102711.75;;;8.00;100.00
20630;BME280;17386;43.846;25.950;2023-01-01T01:11:22;102728.53;;;7.97;100.00
20630;BME280;17386;43.846;25.950;2023-01-01T01:13:49;102715.28;;;8.00;100.00
20630;BME280;17386;43.846;25.950;2023-01-01T01:18:46;102720.63;;;8.03;100.00
20630;BME280;17386;43.846;25.950;2023-01-01T01:21:16;102737.34;;;7.98;100.00
20630;BME280;17386;43.846;25.950;2023-01-01T01:23:42;102729.44;;;8.04;100.00
20630;BME280;17386;43.846;25.950;2023-01-01T01:26:08;102723.28;;;8.08;100.00
20630;BME280;17386;43.846;25.950;2023-01-01T01:28:34;102717.09;;;8.07;100.00
20630;BME280;17386;43.846;25.950;2023-01-01T01:31:00;102724.19;;;8.13;100.00
20630;BME280;17386;43.846;25.950;2023-01-01T01:33:25;102725.91;;;8.08;100.00
20630;BME280;17386;43.846;25.950;2023-01-01T01:35:50;102730.31;;;8.06;100.00
20630;BME280;17386;43.846;25.950;2023-01-01T01:38:16;102728.53;;;7.99;100.00
20630;BME280;17386;43.846;25.950;2023-01-01T01:40:42;102721.41;;;7.94;100.00
20630;BME280;17386;43.846;25.950;2023-01-01T01:45:46;102719.75;;;8.06;100.00
20630;BME280;17386;43.846;25.950;2023-01-01T01:48:11;102716.22;;;8.07;100.00
20630;BME280;17386;43.846;25.950;2023-01-01T01:50:39;102723.28;;;8.05;100.00
20630;BME280;17386;43.846;25.950;2023-01-01T01:53:10;102718.81;;;7.98;100.00
20630;BME280;17386;43.846;25.950;2023-01-01T01:55:42;102710.81;;;7.93;100.00
20630;BME280;17386;43.846;25.950;2023-01-01T01:58:10;102702.84;;;7.88;100.00
20630;BME280;17386;43.846;25.950;2023-01-01T02:00:37;102719.59;;;7.84;100.00
20630;BME280;17386;43.846;25.950;2023-01-01T02:03:13;102714.28;;;7.81;100.00
20630;BME280;17386;43.846;25.950;2023-01-01T02:05:40;102716.03;;;7.81;100.00
20630;BME280;17386;43.846;25.950;2023-01-01T02:08:07;102718.72;;;7.87;100.00
20630;BME280;17386;43.846;25.950;2023-01-01T02:10:33;102711.56;;;7.74;100.00
20630;BME280;17386;43.846;25.950;2023-01-01T02:12:58;102720.28;;;7.60;100.00
20630;BME280;17386;43.846;25.950;2023-01-01T02:15:29;102721.16;;;7.59;100.00
20630;BME280;17386;43.846;25.950;2023-01-01T02:18:00;102718.34;;;7.41;100.00
20630;BME280;17386;43.846;25.950;2023-01-01T02:23:19;102721.53;;;7.03;100.00
20630;BME280;17386;43.846;25.950;2023-01-01T02:28:56;102715.94;;;6.77;100.00
20630;BME280;17386;43.846;25.950;2023-01-01T02:31:30;102719.19;;;6.52;100.00
20630;BME280;17386;43.846;25.950;2023-01-01T02:34:01;102731.44;;;6.47;100.00
20630;BME280;17386;43.846;25.950;2023-01-01T02:36:30;102729.47;;;6.32;100.00
20630;BME280;17386;43.846;25.950;2023-01-01T02:38:59;102714.53;;;6.34;100.00
20630;BME280;17386;43.846;25.950;2023-01-01T02:41:30;102716.47;;;6.46;100.00
20630;BME280;17386;43.846;25.950;2023-01-01T02:43:57;102715.59;;;6.50;100.00
20630;BME280;17386;43.846;25.950;2023-01-01T02:46:22;102714.56;;;6.37;100.00
20630;BME280;17386;43.846;25.950;2023-01-01T02:48:52;102705.81;;;6.40;100.00
20630;BME280;17386;43.846;25.950;2023-01-01T03:02:13;102691.19;;;6.01;100.00
20630;BME280;17386;43.846;25.950;2023-01-01T03:08:01;102684.78;;;5.85;100.00
20630;BME280;17386;43.846;25.950;2023-01-01T03:11:01;102683.03;;;5.86;100.00
20630;BME280;17386;43.846;25.950;2023-01-01T03:21:06;102686.25;;;5.66;100.00
20630;BME280;17386;43.846;25.950;2023-01-01T03:23:34;102700.50;;;5.78;100.00
20630;BME280;17386;43.846;25.950;2023-01-01T03:26:06;102699.72;;;5.85;100.00
20630;BME280;17386;43.846;25.950;2023-01-01T03:28:43;102698.84;;;5.86;100.00
20630;BME280;17386;43.846;25.950;2023-01-01T03:31:13;102696.94;;;5.75;100.00
20630;BME280;17386;43.846;25.950;2023-01-01T03:33:43;102687.25;;;5.74;100.00
20630;BME280;17386;43.846;25.950;2023-01-01T03:36:32;102695.31;;;5.84;100.00
20630;BME280;17386;43.846;25.950;2023-01-01T03:39:05;102698.94;;;5.90;100.00
20630;BME280;17386;43.846;25.950;2023-01-01T03:46:38;102693.75;;;5.95;100.00
20630;BME280;17386;43.846;25.950;2023-01-01T03:49:05;102695.50;;;5.94;100.00
20630;BME280;17386;43.846;25.950;2023-01-01T03:57:21;102700.19;;;6.14;100.00
20630;BME280;17386;43.846;25.950;2023-01-01T04:02:37;102700.06;;;6.06;100.00
20630;BME280;17386;43.846;25.950;2023-01-01T04:05:05;102705.34;;;6.05;100.00
20630;BME280;17386;43.846;25.950;2023-01-01T04:07:32;102712.38;;;6.04;100.00
20630;BME280;17386;43.846;25.950;2023-01-01T04:10:00;102709.63;;;5.98;100.00
20630;BME280;17386;43.846;25.950;2023-01-01T04:12:26;102716.59;;;5.94;100.00
20630;BME280;17386;43.846;25.950;2023-01-01T04:14:52;102704.31;;;5.96;100.00
20630;BME280;17386;43.846;25.950;2023-01-01T04:17:17;102705.28;;;6.03;100.00
20630;BME280;17386;43.846;25.950;2023-01-01T04:19:43;102700.06;;;6.06;100.00
20630;BME280;17386;43.846;25.950;2023-01-01T04:22:08;102695.69;;;6.08;100.00
20630;BME280;17386;43.846;25.950;2023-01-01T04:24:34;102703.59;;;6.05;100.00
20630;BME280;17386;43.846;25.950;2023-01-01T04:26:59;102713.25;;;6.05;100.00
20630;BME280;17386;43.846;25.950;2023-01-01T04:29:24;102712.38;;;6.06;100.00
20630;BME280;17386;43.846;25.950;2023-01-01T04:31:50;102713.34;;;6.12;100.00
20630;BME280;17386;43.846;25.950;2023-01-01T04:34:15;102714.28;;;6.17;100.00
20630;BME280;17386;43.846;25.950;2023-01-01T04:36:41;102711.69;;;6.19;100.00
20630;BME280;17386;43.846;25.950;2023-01-01T04:39:06;102706.34;;;6.16;100.00
20630;BME280;17386;43.846;25.950;2023-01-01T04:41:32;102716.09;;;6.18;100.00
20630;BME280;17386;43.846;25.950;2023-01-01T04:43:58;102705.44;;;6.12;100.00
20630;BME280;17386;43.846;25.950;2023-01-01T04:46:24;102713.28;;;6.08;100.00
20630;BME280;17386;43.846;25.950;2023-01-01T04:48:50;102713.41;;;6.17;100.00
20630;BME280;17386;43.846;25.950;2023-01-01T04:51:18;102717.88;;;6.22;100.00
20630;BME280;17386;43.846;25.950;2023-01-01T04:53:44;102719.72;;;6.26;100.00
20630;BME280;17386;43.846;25.950;2023-01-01T04:56:16;102715.34;;;6.30;100.00
20630;BME280;17386;43.846;25.950;2023-01-01T04:58:42;102717.16;;;6.34;100.00
20630;BME280;17386;43.846;25.950;2023-01-01T05:01:14;102718.97;;;6.38;100.00
20630;BME280;17386;43.846;25.950;2023-01-01T05:03:40;102710.22;;;6.39;100.00
20630;BME280;17386;43.846;25.950;2023-01-01T05:06:10;102724.38;;;6.46;100.00
20630;BME280;17386;43.846;25.950;2023-01-01T05:08:38;102711.84;;;6.31;100.00
20630;BME280;17386;43.846;25.950;2023-01-01T05:11:18;102716.28;;;6.32;100.00
20630;BME280;17386;43.846;25.950;2023-01-01T05:13:46;102715.44;;;6.36;100.00
20630;BME280;17386;43.846;25.950;2023-01-01T05:16:14;102709.25;;;6.36;100.00
20630;BME280;17386;43.846;25.950;2023-01-01T05:18:39;102704.88;;;6.38;100.00
20630;BME280;17386;43.846;25.950;2023-01-01T05:21:08;102714.53;;;6.36;100.00
20630;BME280;17386;43.846;25.950;2023-01-01T05:23:34;102711.03;;;6.35;100.00
20630;BME280;17386;43.846;25.950;2023-01-01T05:25:59;102716.28;;;6.34;100.00
20630;BME280;17386;43.846;25.950;2023-01-01T05:28:25;102703.88;;;6.28;100.00
20630;BME280;17386;43.846;25.950;2023-01-01T05:30:52;102708.41;;;6.37;100.00
20630;BME280;17386;43.846;25.950;2023-01-01T05:33:18;102710.22;;;6.42;100.00
20630;BME280;17386;43.846;25.950;2023-01-01T05:35:44;102712.06;;;6.46;100.00
20630;BME280;17386;43.846;25.950;2023-01-01T05:38:09;102706.78;;;6.48;100.00
20630;BME280;17386;43.846;25.950;2023-01-01T05:40:38;102707.75;;;6.56;100.00
20630;BME280;17386;43.846;25.950;2023-01-01T05:43:05;102713.09;;;6.59;100.00
20630;BME280;17386;43.846;25.950;2023-01-01T05:45:31;102717.53;;;6.62;100.00
20630;BME280;17386;43.846;25.950;2023-01-01T05:47:56;102722.88;;;6.66;100.00
20630;BME280;17386;43.846;25.950;2023-01-01T05:50:21;102723.78;;;6.70;100.00
20630;BME280;17386;43.846;25.950;2023-01-01T05:52:47;102730.88;;;6.74;100.00
20630;BME280;17386;43.846;25.950;2023-01-01T05:55:12;102731.78;;;6.77;100.00
20630;BME280;17386;43.846;25.950;2023-01-01T05:57:38;102745.00;;;6.79;100.00
20630;BME280;17386;43.846;25.950;2023-01-01T06:00:04;102739.72;;;6.79;100.00
20630;BME280;17386;43.846;25.950;2023-01-01T06:02:29;102752.06;;;6.78;100.00
20630;BME280;17386;43.846;25.950;2023-01-01T06:04:55;102752.94;;;6.77;100.00
20630;BME280;17386;43.846;25.950;2023-01-01T06:07:21;102751.13;;;6.73;100.00
20630;BME280;17386;43.846;25.950;2023-01-01T06:09:46;102754.66;;;6.75;100.00
20630;BME280;17386;43.846;25.950;2023-01-01T06:12:11;102755.66;;;6.83;100.00
20630;BME280;17386;43.846;25.950;2023-01-01T06:14:37;102766.28;;;6.87;100.00
20630;BME280;17386;43.846;25.950;2023-01-01T06:17:02;102767.97;;;6.83;100.00
20630;BME280;17386;43.846;25.950;2023-01-01T06:19:27;102774.16;;;6.85;100.00
20630;BME280;17386;43.846;25.950;2023-01-01T06:21:53;102768.94;;;6.93;100.00
20630;BME280;17386;43.846;25.950;2023-01-01T06:24:18;102772.53;;;6.98;100.00
20630;BME280;17386;43.846;25.950;2023-01-01T06:26:44;102767.25;;;6.98;100.00
20630;BME280;17386;43.846;25.950;2023-01-01T06:29:09;102775.19;;;6.96;100.00
20630;BME280;17386;43.846;25.950;2023-01-01T06:31:34;102776.91;;;6.94;100.00
20630;BME280;17386;43.846;25.950;2023-01-01T06:34:00;102779.59;;;6.99;100.00
20630;BME280;17386;43.846;25.950;2023-01-01T06:36:25;102775.25;;;7.01;100.00
20630;BME280;17386;43.846;25.950;2023-01-01T06:38:54;102784.00;;;7.00;100.00
20630;BME280;17386;43.846;25.950;2023-01-01T06:41:21;102793.75;;;7.04;100.00
20630;BME280;17386;43.846;25.950;2023-01-01T06:43:48;102794.72;;;7.09;100.00
20630;BME280;17386;43.846;25.950;2023-01-01T06:48:40;102788.53;;;7.08;100.00
20630;BME280;17386;43.846;25.950;2023-01-01T06:51:20;102789.44;;;7.12;100.00
20630;BME280;17386;43.846;25.950;2023-01-01T06:53:47;102793.84;;;7.10;100.00
20630;BME280;17386;43.846;25.950;2023-01-01T06:56:12;102799.19;;;7.15;100.00
20630;BME280;17386;43.846;25.950;2023-01-01T06:58:38;102793.03;;;7.17;100.00
20630;BME280;17386;43.846;25.950;2023-01-01T07:01:15;102800.16;;;7.24;100.00
20630;BME280;17386;43.846;25.950;2023-01-01T07:03:41;102795.75;;;7.25;100.00
20630;BME280;17386;43.846;25.950;2023-01-01T07:06:08;102800.09;;;7.20;100.00
20630;BME280;17386;43.846;25.950;2023-01-01T07:08:34;102801.97;;;7.28;100.00
20630;BME280;17386;43.846;25.950;2023-01-01T07:10:59;102799.28;;;7.25;100.00
20630;BME280;17386;43.846;25.950;2023-01-01T07:13:27;102797.69;;;7.41;100.00
20630;BME280;17386;43.846;25.950;2023-01-01T07:15:53;102796.91;;;7.51;100.00
20630;BME280;17386;43.846;25.950;2023-01-01T07:18:19;102793.47;;;7.60;100.00
20630;BME280;17386;43.846;25.950;2023-01-01T07:20:59;102790.00;;;7.68;100.00
20630;BME280;17386;43.846;25.950;2023-01-01T07:23:26;102786.59;;;7.77;100.00
20630;BME280;17386;43.846;25.950;2023-01-01T07:25:53;102789.31;;;7.88;100.00
20630;BME280;17386;43.846;25.950;2023-01-01T07:28:19;102780.53;;;7.95;100.00
20630;BME280;17386;43.846;25.950;2023-01-01T07:30:45;102785.97;;;8.12;100.00
20630;BME280;17386;43.846;25.950;2023-01-01T07:33:11;102787.00;;;8.31;100.00
20630;BME280;17386;43.846;25.950;2023-01-01T07:35:38;102781.81;;;8.46;100.00
20630;BME280;17386;43.846;25.950;2023-01-01T07:38:03;102786.34;;;8.65;100.00
20630;BME280;17386;43.846;25.950;2023-01-01T07:40:29;102778.41;;;8.77;100.00
20630;BME280;17386;43.846;25.950;2023-01-01T07:42:54;102785.56;;;8.94;100.00
20630;BME280;17386;43.846;25.950;2023-01-01T07:45:19;102788.25;;;9.12;100.00
20630;BME280;17386;43.846;25.950;2023-01-01T07:47:49;102789.19;;;9.32;100.00
20630;BME280;17386;43.846;25.950;2023-01-01T07:50:16;102785.69;;;9.53;100.00
20630;BME280;17386;43.846;25.950;2023-01-01T07:52:42;102799.88;;;9.74;100.00
20630;BME280;17386;43.846;25.950;2023-01-01T07:55:14;102799.00;;;9.92;99.95
20630;BME280;17386;43.846;25.950;2023-01-01T07:57:40;102804.31;;;10.11;98.60
20630;BME280;17386;43.846;25.950;2023-01-01T08:00:06;102807.84;;;10.27;97.89
20630;BME280;17386;43.846;25.950;2023-01-01T08:02:32;102804.28;;;10.44;97.11
20630;BME280;17386;43.846;25.950;2023-01-01T08:04:57;102809.59;;;10.42;95.86
20630;BME280;17386;43.846;25.950;2023-01-01T08:07:24;102806.91;;;10.54;96.17
20630;BME280;17386;43.846;25.950;2023-01-01T08:09:49;102815.78;;;10.50;95.62
20630;BME280;17386;43.846;25.950;2023-01-01T08:12:14;102813.13;;;10.53;95.87
20630;BME280;17386;43.846;25.950;2023-01-01T08:14:40;102814.00;;;10.57;95.91
20630;BME280;17386;43.846;25.950;2023-01-01T08:17:05;102808.69;;;10.57;96.04
20630;BME280;17386;43.846;25.950;2023-01-01T08:19:30;102813.13;;;10.58;95.84
20630;BME280;17386;43.846;25.950;2023-01-01T08:21:56;102814.84;;;10.66;96.31
20630;BME280;17386;43.846;25.950;2023-01-01T08:24:21;102820.16;;;10.74;96.14
20630;BME280;17386;43.846;25.950;2023-01-01T08:26:48;102820.13;;;10.77;95.41
20630;BME280;17386;43.846;25.950;2023-01-01T08:29:13;102818.34;;;10.82;94.92
20630;BME280;17386;43.846;25.950;2023-01-01T08:31:39;102824.50;;;10.98;93.89
20630;BME280;17386;43.846;25.950;2023-01-01T08:34:05;102814.75;;;10.95;93.33
20630;BME280;17386;43.846;25.950;2023-01-01T08:36:31;102819.22;;;10.92;93.40
20630;BME280;17386;43.846;25.950;2023-01-01T08:38:56;102812.94;;;11.07;93.65
20630;BME280;17386;43.846;25.950;2023-01-01T08:41:22;102813.69;;;11.29;92.64
20630;BME280;17386;43.846;25.950;2023-01-01T08:43:47;102815.31;;;11.54;91.37
20630;BME280;17386;43.846;25.950;2023-01-01T08:46:12;102820.50;;;11.82;89.13
20630;BME280;17386;43.846;25.950;2023-01-01T08:48:38;102804.22;;;12.12;87.25
20630;BME280;17386;43.846;25.950;2023-01-01T08:51:03;102803.84;;;12.52;85.98
20630;BME280;17386;43.846;25.950;2023-01-01T08:53:30;102807.09;;;12.75;83.09
20630;BME280;17386;43.846;25.950;2023-01-01T08:56:05;102813.25;;;12.83;83.27
20630;BME280;17386;43.846;25.950;2023-01-01T08:58:31;102802.38;;;12.99;82.05
20630;BME280;17386;43.846;25.950;2023-01-01T09:00:57;102804.63;;;13.31;80.66
20630;BME280;17386;43.846;25.950;2023-01-01T09:03:24;102804.03;;;13.71;80.45
20630;BME280;17386;43.846;25.950;2023-01-01T09:05:50;102814.25;;;14.00;77.90
20630;BME280;17386;43.846;25.950;2023-01-01T09:08:15;102811.09;;;13.76;78.81
20630;BME280;17386;43.846;25.950;2023-01-01T09:10:41;102798.75;;;13.67;78.82
20630;BME280;17386;43.846;25.950;2023-01-01T09:13:12;102804.25;;;13.57;79.22
20630;BME280;17386;43.846;25.950;2023-01-01T09:15:38;102796.09;;;13.67;79.12
20630;BME280;17386;43.846;25.950;2023-01-01T09:18:03;102791.06;;;14.02;78.51
20630;BME280;17386;43.846;25.950;2023-01-01T09:20:29;102800.94;;;13.96;76.99
20630;BME280;17386;43.846;25.950;2023-01-01T09:22:55;102798.31;;;13.95;76.67
20630;BME280;17386;43.846;25.950;2023-01-01T09:25:20;102792.13;;;13.91;76.19
20630;BME280;17386;43.846;25.950;2023-01-01T09:27:46;102794.84;;;13.88;76.83
20630;BME280;17386;43.846;25.950;2023-01-01T09:30:11;102785.06;;;13.89;76.06
20630;BME280;17386;43.846;25.950;2023-01-01T09:32:37;102793.13;;;13.84;76.47
20630;BME280;17386;43.846;25.950;2023-01-01T09:35:03;102786.81;;;13.90;76.71
20630;BME280;17386;43.846;25.950;2023-01-01T09:37:28;102785.78;;;13.97;76.63
20630;BME280;17386;43.846;25.950;2023-01-01T09:39:55;102793.53;;;14.14;76.41
20630;BME280;17386;43.846;25.950;2023-01-01T09:42:46;102785.22;;;14.29;76.21
20630;BME280;17386;43.846;25.950;2023-01-01T09:45:20;102782.44;;;14.34;75.59
20630;BME280;17386;43.846;25.950;2023-01-01T09:47:54;102773.53;;;14.35;75.49
20630;BME280;17386;43.846;25.950;2023-01-01T09:50:24;102787.00;;;14.75;74.27
20630;BME280;17386;43.846;25.950;2023-01-01T09:53:00;102788.34;;;14.96;72.29
20630;BME280;17386;43.846;25.950;2023-01-01T09:55:33;102774.81;;;15.42;71.60
20630;BME280;17386;43.846;25.950;2023-01-01T09:58:02;102780.06;;;15.47;70.17
20630;BME280;17386;43.846;25.950;2023-01-01T10:00:28;102778.22;;;15.49;70.78
20630;BME280;17386;43.846;25.950;2023-01-01T10:03:16;102781.69;;;15.91;70.29
20630;BME280;17386;43.846;25.950;2023-01-01T10:06:23;102780.84;;;16.87;65.66
20630;BME280;17386;43.846;25.950;2023-01-01T10:13:57;102761.19;;;17.98;61.35
20630;BME280;17386;43.846;25.950;2023-01-01T10:16:39;102767.50;;;18.47;58.20
20630;BME280;17386;43.846;25.950;2023-01-01T10:21:52;102762.78;;;19.46;55.73
20630;BME280;17386;43.846;25.950;2023-01-01T10:24:35;102756.25;;;18.84;55.95
20630;BME280;17386;43.846;25.950;2023-01-01T10:27:04;102751.59;;;18.90;55.91
20630;BME280;17386;43.846;25.950;2023-01-01T10:29:39;102753.44;;;19.55;54.44
20630;BME280;17386;43.846;25.950;2023-01-01T10:32:21;102751.19;;;19.44;54.04
20630;BME280;17386;43.846;25.950;2023-01-01T10:34:50;102749.06;;;19.74;53.42
20630;BME280;17386;43.846;25.950;2023-01-01T10:37:16;102746.56;;;19.90;52.40
20630;BME280;17386;43.846;25.950;2023-01-01T10:39:43;102746.81;;;19.85;52.99
20630;BME280;17386;43.846;25.950;2023-01-01T10:42:12;102730.13;;;19.32;53.95
20630;BME280;17386;43.846;25.950;2023-01-01T10:44:38;102726.16;;;18.25;56.60
20630;BME280;17386;43.846;25.950;2023-01-01T10:47:24;102721.19;;;18.14;57.63
20630;BME280;17386;43.846;25.950;2023-01-01T10:50:01;102728.75;;;18.28;57.06
20630;BME280;17386;43.846;25.950;2023-01-01T10:52:34;102727.88;;;18.02;57.58
20630;BME280;17386;43.846;25.950;2023-01-01T10:54:59;102725.69;;;18.14;58.02
20630;BME280;17386;43.846;25.950;2023-01-01T10:57:34;102723.88;;;18.39;56.65
20630;BME280;17386;43.846;25.950;2023-01-01T11:00:22;102720.97;;;18.44;56.73
20630;BME280;17386;43.846;25.950;2023-01-01T11:03:12;102725.53;;;18.65;56.94
20630;BME280;17386;43.846;25.950;2023-01-01T11:05:38;102721.16;;;19.31;55.42
20630;BME280;17386;43.846;25.950;2023-01-01T11:08:15;102717.28;;;18.95;54.33
20630;BME280;17386;43.846;25.950;2023-01-01T11:10:49;102715.63;;;18.91;54.74
20630;BME280;17386;43.846;25.950;2023-01-01T11:13:18;102712.19;;;18.39;55.56
20630;BME280;17386;43.846;25.950;2023-01-01T11:15:45;102713.41;;;18.78;55.17
20630;BME280;17386;43.846;25.950;2023-01-01T11:18:25;102693.25;;;18.42;55.24
20630;BME280;17386;43.846;25.950;2023-01-01T11:20:53;102695.97;;;18.89;55.10
20630;BME280;17386;43.846;25.950;2023-01-01T11:23:37;102698.03;;;19.04;53.33
20630;BME280;17386;43.846;25.950;2023-01-01T11:28:38;102700.19;;;17.74;56.49
20630;BME280;17386;43.846;25.950;2023-01-01T11:33:36;102691.03;;;17.80;57.12
20630;BME280;17386;43.846;25.950;2023-01-01T11:36:03;102689.88;;;17.60;57.61
20630;BME280;17386;43.846;25.950;2023-01-01T11:38:29;102691.13;;;17.50;58.79
20630;BME280;17386;43.846;25.950;2023-01-01T11:40:55;102690.53;;;17.40;58.20
20630;BME280;17386;43.846;25.950;2023-01-01T11:43:26;102692.50;;;17.07;59.18
20630;BME280;17386;43.846;25.950;2023-01-01T11:45:56;102685.78;;;16.94;59.59
20630;BME280;17386;43.846;25.950;2023-01-01T11:50:53;102673.97;;;16.40;62.01
20630;BME280;17386;43.846;25.950;2023-01-01T11:55:59;102674.88;;;16.39;62.24
20630;BME280;17386;43.846;25.950;2023-01-01T12:01:06;102672.91;;;16.15;63.91
20630;BME280;17386;43.846;25.950;2023-01-01T12:06:50;102670.50;;;16.06;64.14
20630;BME280;17386;43.846;25.950;2023-01-01T12:09:53;102674.28;;;15.97;64.88
20630;BME280;17386;43.846;25.950;2023-01-01T12:13:10;102674.25;;;15.99;64.97
20630;BME280;17386;43.846;25.950;2023-01-01T12:15:23;102667.06;;;16.01;64.33
20630;BME280;17386;43.846;25.950;2023-01-01T12:18:12;102671.66;;;15.96;64.46
20630;BME280;17386;43.846;25.950;2023-01-01T12:21:00;102656.38;;;15.99;64.99
20630;BME280;17386;43.846;25.950;2023-01-01T12:23:27;102652.84;;;15.97;64.11
20630;BME280;17386;43.846;25.950;2023-01-01T12:31:21;102665.22;;;16.03;64.57
20630;BME280;17386;43.846;25.950;2023-01-01T12:34:18;102647.59;;;15.94;65.72
20630;BME280;17386;43.846;25.950;2023-01-01T12:39:47;102652.13;;;15.92;66.40
20630;BME280;17386;43.846;25.950;2023-01-01T12:42:34;102652.19;;;15.89;66.82
20630;BME280;17386;43.846;25.950;2023-01-01T12:50:55;102650.69;;;15.79;68.42
20630;BME280;17386;43.846;25.950;2023-01-01T12:53:42;102645.41;;;15.76;68.46
20630;BME280;17386;43.846;25.950;2023-01-01T12:59:06;102642.47;;;15.85;68.30
20630;BME280;17386;43.846;25.950;2023-01-01T13:01:36;102637.28;;;15.79;68.72
20630;BME280;17386;43.846;25.950;2023-01-01T13:04:13;102640.81;;;15.81;69.14
20630;BME280;17386;43.846;25.950;2023-01-01T13:09:22;102640.97;;;15.75;69.78
20630;BME280;17386;43.846;25.950;2023-01-01T13:11:56;102640.97;;;15.75;69.90
20630;BME280;17386;43.846;25.950;2023-01-01T13:14:23;102645.50;;;15.73;70.33
20630;BME280;17386;43.846;25.950;2023-01-01T13:16:57;102635.78;;;15.69;70.91
20630;BME280;17386;43.846;25.950;2023-01-01T13:19:33;102634.25;;;15.57;71.32
20630;BME280;17386;43.846;25.950;2023-01-01T13:46:42;102659.84;;;15.35;72.96
20630;BME280;17386;43.846;25.950;2023-01-01T13:57:59;102647.00;;;15.13;74.27
20630;BME280;17386;43.846;25.950;2023-01-01T14:00:31;102650.63;;;15.11;74.37
20630;BME280;17386;43.846;25.950;2023-01-01T14:03:05;102645.47;;;15.03;75.18
20630;BME280;17386;43.846;25.950;2023-01-01T14:07:58;102646.53;;;14.94;75.48
20630;BME280;17386;43.846;25.950;2023-01-01T14:10:27;102640.44;;;14.89;76.11
20630;BME280;17386;43.846;25.950;2023-01-01T14:12:56;102641.47;;;14.82;76.38
20630;BME280;17386;43.846;25.950;2023-01-01T14:15:27;102637.13;;;14.78;76.91
20630;BME280;17386;43.846;25.950;2023-01-01T14:17:54;102635.50;;;14.71;77.10
20630;BME280;17386;43.846;25.950;2023-01-01T14:20:24;102634.75;;;14.64;77.80
20630;BME280;17386;43.846;25.950;2023-01-01T14:22:52;102634.03;;;14.58;77.92
20630;BME280;17386;43.846;25.950;2023-01-01T14:25:35;102628.88;;;14.48;78.21
20630;BME280;17386;43.846;25.950;2023-01-01T14:28:01;102639.69;;;14.41;78.49
20630;BME280;17386;43.846;25.950;2023-01-01T14:30:30;102634.53;;;14.32;78.69
20630;BME280;17386;43.846;25.950;2023-01-01T14:32:58;102631.13;;;14.25;79.49
20630;BME280;17386;43.846;25.950;2023-01-01T14:35:24;102626.78;;;14.19;79.67
20630;BME280;17386;43.846;25.950;2023-01-01T14:37:50;102637.59;;;14.15;79.77
20630;BME280;17386;43.846;25.950;2023-01-01T14:40:25;102626.97;;;14.10;80.15
20630;BME280;17386;43.846;25.950;2023-01-01T14:43:06;102626.22;;;14.04;80.07
20630;BME280;17386;43.846;25.950;2023-01-01T14:45:35;102622.78;;;13.97;80.24
20630;BME280;17386;43.846;25.950;2023-01-01T14:48:00;102628.19;;;13.94;80.44
20630;BME280;17386;43.846;25.950;2023-01-01T14:50:30;102625.53;;;13.92;80.39
20630;BME280;17386;43.846;25.950;2023-01-01T14:53:06;102626.50;;;13.90;80.21
20630;BME280;17386;43.846;25.950;2023-01-01T14:55:43;102621.19;;;13.88;80.20
20630;BME280;17386;43.846;25.950;2023-01-01T14:58:16;102628.31;;;13.88;80.10